Time;durP1;ratioP1;P1;durP2;ratioP2;P2;SDS_P1;SDS_P2;PMS_P1;PMS_P2;Temp;Humidity;BMP_temperature;BMP_pressure;BME280_temperature;BME280_humidity;BME280_pressure;Samples;Min_cycle;Max_cycle;Signal;HPM_P1;HPM_P2
2023/11/05 00:02:13;;;;;;;1.17;0.50;;;;;;;;;;5073959;28;20174;-57
2023/11/05 00:04:41;;;;;;;0.90;0.50;;;;;;;;;;5073381;28;20532;-52
2023/11/05 00:07:11;;;;;;;1.08;0.40;;;;;;;;;;5073270;28;20075;-53
2023/11/05 00:09:38;;;;;;;1.27;0.50;;;;;;;;;;5073176;28;20098;-51
2023/11/05 00:12:06;;;;;;;1.88;0.60;;;;;;;;;;5073442;28;20499;-55
2023/11/05 00:14:35;;;;;;;1.30;0.50;;;;;;;;;;5073055;28;20144;-53
2023/11/05 00:17:03;;;;;;;1.90;0.80;;;;;;;;;;5073055;28;20461;-55
2023/11/05 00:19:31;;;;;;;1.40;0.55;;;;;;;;;;5073409;28;20102;-57
2023/11/05 00:21:57;;;;;;;1.65;0.63;;;;;;;;;;5073298;28;20471;-52
2023/11/05 00:24:26;;;;;;;2.53;0.50;;;;;;;;;;5073205;28;20076;-55
2023/11/05 00:26:53;;;;;;;1.00;0.50;;;;;;;;;;5072550;28;20080;-52
2023/11/05 00:29:20;;;;;;;0.98;0.50;;;;;;;;;;5072956;28;20127;-51
2023/11/05 00:31:47;;;;;;;1.00;0.50;;;;;;;;;;5073010;28;20052;-52
2023/11/05 00:34:14;;;;;;;1.85;0.50;;;;;;;;;;5072944;28;20648;-52
2023/11/05 00:36:40;;;;;;;1.75;0.80;;;;;;;;;;5072710;28;20131;-53
2023/11/05 00:39:07;;;;;;;1.20;0.50;;;;;;;;;;5072671;28;20127;-51
2023/11/05 00:41:35;;;;;;;1.30;0.57;;;;;;;;;;5072764;28;20664;-55
2023/11/05 00:44:02;;;;;;;2.50;0.70;;;;;;;;;;5071962;28;20102;-56
2023/11/05 00:46:29;;;;;;;0.90;0.40;;;;;;;;;;5072308;28;20049;-56
2023/11/05 00:48:56;;;;;;;1.35;0.47;;;;;;;;;;5072644;28;20422;-51
2023/11/05 00:51:23;;;;;;;1.48;0.50;;;;;;;;;;5072643;28;20044;-53
2023/11/05 00:53:50;;;;;;;1.02;0.45;;;;;;;;;;5072531;28;20454;-56
2023/11/05 00:56:16;;;;;;;1.95;0.60;;;;;;;;;;5072103;28;20049;-55
2023/11/05 00:58:45;;;;;;;3.15;0.90;;;;;;;;;;5072496;28;20132;-55
2023/11/05 01:01:12;;;;;;;2.63;1.00;;;;;;;;;;5072595;28;20491;-54
2023/11/05 01:03:39;;;;;;;5.95;1.17;;;;;;;;;;5072343;28;20463;-53
2023/11/05 01:06:06;;;;;;;3.70;1.40;;;;;;;;;;5070306;28;20135;-55
2023/11/05 01:08:33;;;;;;;3.45;1.00;;;;;;;;;;5066052;28;20045;-54
2023/11/05 01:11:00;;;;;;;2.33;0.70;;;;;;;;;;5062038;28;20544;-54
2023/11/05 01:13:27;;;;;;;1.08;0.55;;;;;;;;;;5071773;28;20123;-56
2023/11/05 01:15:55;;;;;;;2.08;0.80;;;;;;;;;;5063517;28;20049;-54
2023/11/05 01:18:23;;;;;;;1.73;0.60;;;;;;;;;;5072004;28;20106;-55
2023/11/05 01:20:50;;;;;;;0.95;0.43;;;;;;;;;;5070350;28;20041;-55
2023/11/05 01:23:17;;;;;;;1.52;0.55;;;;;;;;;;5071612;28;20127;-52
2023/11/05 01:25:44;;;;;;;1.80;0.65;;;;;;;;;;5064026;28;20297;-55
2023/11/05 01:28:11;;;;;;;2.05;0.60;;;;;;;;;;5071236;28;20041;-51
2023/11/05 01:30:38;;;;;;;2.13;0.90;;;;;;;;;;5071455;28;20071;-50
2023/11/05 01:33:06;;;;;;;1.88;0.65;;;;;;;;;;5071492;28;20131;-53
2023/11/05 01:35:32;;;;;;;1.45;0.70;;;;;;;;;;5071490;28;20084;-56
2023/11/05 01:37:59;;;;;;;2.40;0.80;;;;;;;;;;5063301;28;20148;-51
2023/11/05 01:40:26;;;;;;;1.65;0.68;;;;;;;;;;5071500;28;20148;-55
2023/11/05 01:42:56;;;;;;;1.55;0.70;;;;;;;;;;5071567;28;20477;-55
2023/11/05 01:45:23;;;;;;;1.02;0.57;;;;;;;;;;5071537;28;20641;-56
2023/11/05 01:47:52;;;;;;;1.13;0.50;;;;;;;;;;5071196;28;20045;-50
2023/11/05 01:50:21;;;;;;;0.88;0.50;;;;;;;;;;5055594;28;20135;-51
2023/11/05 01:52:54;;;;;;;0.40;0.30;;;;;;;;;;5071514;28;20135;-53
2023/11/05 01:55:22;;;;;;;1.88;0.50;;;;;;;;;;5070501;28;20562;-54
2023/11/05 01:57:49;;;;;;;1.00;0.55;;;;;;;;;;5071263;28;20131;-55
2023/11/05 02:00:16;;;;;;;1.48;0.47;;;;;;;;;;5063075;28;20053;-53
2023/11/05 02:02:43;;;;;;;1.10;0.50;;;;;;;;;;5064274;28;20553;-54
2023/11/05 02:05:10;;;;;;;1.35;0.40;;;;;;;;;;5050716;28;20080;-52
2023/11/05 02:07:38;;;;;;;1.23;0.50;;;;;;;;;;5051555;28;20425;-52
2023/11/05 02:10:06;;;;;;;0.77;0.40;;;;;;;;;;5053233;28;20475;-55
2023/11/05 02:12:33;;;;;;;0.70;0.40;;;;;;;;;;5065129;28;20056;-55
2023/11/05 02:15:00;;;;;;;0.95;0.52;;;;;;;;;;5052113;28;20100;-55
2023/11/05 02:17:27;;;;;;;0.80;0.40;;;;;;;;;;5071060;28;20083;-55
2023/11/05 02:19:53;;;;;;;0.55;0.40;;;;;;;;;;5071186;28;20048;-52
2023/11/05 02:22:22;;;;;;;0.90;0.40;;;;;;;;;;5071129;28;20472;-53
2023/11/05 02:24:51;;;;;;;0.75;0.40;;;;;;;;;;5070919;28;20519;-51
2023/11/05 02:27:17;;;;;;;0.77;0.40;;;;;;;;;;5059125;28;20048;-55
2023/11/05 02:29:44;;;;;;;0.68;0.32;;;;;;;;;;5058738;28;20127;-56
2023/11/05 02:32:11;;;;;;;0.50;0.30;;;;;;;;;;5070811;28;20128;-54
2023/11/05 02:34:37;;;;;;;0.60;0.30;;;;;;;;;;5070927;28;20487;-54
2023/11/05 02:37:05;;;;;;;0.65;0.40;;;;;;;;;;5062583;28;20105;-53
2023/11/05 02:39:32;;;;;;;0.82;0.20;;;;;;;;;;5062625;28;20052;-53
2023/11/05 02:42:01;;;;;;;0.20;0.20;;;;;;;;;;5070650;28;20419;-53
2023/11/05 02:44:27;;;;;;;0.73;0.40;;;;;;;;;;5062736;28;20174;-53
2023/11/05 02:46:54;;;;;;;1.23;0.30;;;;;;;;;;5070568;28;20127;-54
2023/11/05 02:49:21;;;;;;;0.77;0.30;;;;;;;;;;5070802;28;20123;-51
2023/11/05 02:51:49;;;;;;;1.00;0.50;;;;;;;;;;5062575;28;20132;-54
2023/11/05 02:54:16;;;;;;;0.90;0.38;;;;;;;;;;5062702;28;20066;-52
2023/11/05 02:56:43;;;;;;;1.17;0.40;;;;;;;;;;5054445;28;20476;-52
2023/11/05 02:59:16;;;;;;;1.20;0.28;;;;;;;;;;5050756;28;20144;-55
2023/11/05 03:01:42;;;;;;;0.65;0.40;;;;;;;;;;5066356;28;20040;-53
2023/11/05 03:04:09;;;;;;;1.50;0.47;;;;;;;;;;5054055;28;20134;-50
2023/11/05 03:06:37;;;;;;;1.17;0.57;;;;;;;;;;5071633;28;20079;-50
2023/11/05 03:09:03;;;;;;;0.47;0.30;;;;;;;;;;5074005;28;20139;-52
2023/11/05 03:11:30;;;;;;;1.75;0.50;;;;;;;;;;5074486;28;20470;-54
2023/11/05 03:13:57;;;;;;;1.02;0.40;;;;;;;;;;5074362;28;20455;-51
2023/11/05 03:16:26;;;;;;;1.20;0.40;;;;;;;;;;5074043;28;20048;-52
2023/11/05 03:18:52;;;;;;;0.57;0.50;;;;;;;;;;5057151;28;20049;-52
2023/11/05 03:21:19;;;;;;;1.38;0.30;;;;;;;;;;5054060;28;20131;-52
2023/11/05 03:23:46;;;;;;;1.50;0.40;;;;;;;;;;5069870;28;20127;-54
2023/11/05 03:26:13;;;;;;;0.50;0.30;;;;;;;;;;5073745;28;20127;-54
2023/11/05 03:28:40;;;;;;;0.65;0.30;;;;;;;;;;5073944;28;20052;-52
2023/11/05 03:31:08;;;;;;;0.20;0.20;;;;;;;;;;5071425;28;20496;-54
2023/11/05 03:33:37;;;;;;;0.73;0.38;;;;;;;;;;5053434;28;20493;-53
2023/11/05 03:36:06;;;;;;;1.02;0.50;;;;;;;;;;5071876;28;20056;-53
2023/11/05 03:38:33;;;;;;;0.63;0.30;;;;;;;;;;5073509;28;20052;-51
2023/11/05 03:40:59;;;;;;;0.63;0.30;;;;;;;;;;5073846;28;20504;-51
2023/11/05 03:43:27;;;;;;;0.50;0.28;;;;;;;;;;5060436;28;20136;-52
2023/11/05 03:45:53;;;;;;;0.95;0.32;;;;;;;;;;5070465;28;20652;-50
2023/11/05 03:48:20;;;;;;;0.38;0.30;;;;;;;;;;5073669;28;20124;-52
2023/11/05 03:50:49;;;;;;;0.52;0.40;;;;;;;;;;5073439;28;20080;-55
2023/11/05 03:53:15;;;;;;;2.10;0.40;;;;;;;;;;5073360;28;20044;-50
2023/11/05 03:55:42;;;;;;;0.75;0.35;;;;;;;;;;5073473;28;20478;-50
2023/11/05 03:58:09;;;;;;;0.65;0.38;;;;;;;;;;5073717;28;20079;-54
2023/11/05 04:00:37;;;;;;;0.65;0.32;;;;;;;;;;5073554;28;20048;-52
2023/11/05 04:03:04;;;;;;;0.70;0.40;;;;;;;;;;5056321;28;20049;-54
2023/11/05 04:05:30;;;;;;;0.68;0.30;;;;;;;;;;5073112;28;20127;-52
2023/11/05 04:07:58;;;;;;;0.77;0.30;;;;;;;;;;5073051;28;20132;-53
2023/11/05 04:10:25;;;;;;;0.90;0.40;;;;;;;;;;5073195;28;20076;-51
2023/11/05 04:12:52;;;;;;;1.13;0.40;;;;;;;;;;5073039;28;20500;-54
2023/11/05 04:15:19;;;;;;;0.70;0.30;;;;;;;;;;5052897;28;20067;-54
2023/11/05 04:17:45;;;;;;;1.00;0.30;;;;;;;;;;5052211;28;20473;-51
2023/11/05 04:20:12;;;;;;;0.55;0.40;;;;;;;;;;5064467;28;20131;-52
2023/11/05 04:22:39;;;;;;;0.60;0.30;;;;;;;;;;5073017;28;20139;-53
2023/11/05 04:25:09;;;;;;;1.58;0.45;;;;;;;;;;5064406;28;20451;-52
2023/11/05 04:27:36;;;;;;;0.65;0.35;;;;;;;;;;5073050;28;20497;-55
2023/11/05 04:30:03;;;;;;;0.30;0.20;;;;;;;;;;5056426;28;20128;-54
2023/11/05 04:32:29;;;;;;;1.10;0.40;;;;;;;;;;5067242;28;20057;-51
2023/11/05 04:34:57;;;;;;;1.67;0.45;;;;;;;;;;5070223;28;20135;-53
2023/11/05 04:37:24;;;;;;;0.30;0.30;;;;;;;;;;5072773;28;20047;-55
2023/11/05 04:39:51;;;;;;;0.40;0.20;;;;;;;;;;5072485;28;20127;-53
2023/11/05 04:42:19;;;;;;;1.20;0.30;;;;;;;;;;5060515;28;20092;-55
2023/11/05 04:44:46;;;;;;;2.60;0.60;;;;;;;;;;5052265;28;20129;-50
2023/11/05 04:47:12;;;;;;;0.20;0.20;;;;;;;;;;5052539;28;20076;-51
2023/11/05 04:49:40;;;;;;;0.88;0.30;;;;;;;;;;5052373;28;20045;-54
2023/11/05 04:52:07;;;;;;;0.60;0.35;;;;;;;;;;5062789;28;20079;-50
2023/11/05 04:54:34;;;;;;;0.77;0.30;;;;;;;;;;5072307;28;20087;-53
2023/11/05 04:57:00;;;;;;;0.95;0.30;;;;;;;;;;5062630;28;20147;-53
2023/11/05 04:59:29;;;;;;;0.93;0.30;;;;;;;;;;5052769;28;20045;-52
2023/11/05 05:01:57;;;;;;;0.40;0.25;;;;;;;;;;5052143;28;20061;-58
2023/11/05 05:04:24;;;;;;;0.57;0.40;;;;;;;;;;5052118;28;20139;-54
2023/11/05 05:06:51;;;;;;;1.02;0.32;;;;;;;;;;5068504;28;20131;-52
2023/11/05 05:09:18;;;;;;;0.60;0.40;;;;;;;;;;5063735;28;20087;-52
2023/11/05 05:11:45;;;;;;;0.52;0.30;;;;;;;;;;5064536;28;20128;-53
2023/11/05 05:14:11;;;;;;;0.70;0.35;;;;;;;;;;5068254;28;20084;-51
2023/11/05 05:16:39;;;;;;;0.90;0.30;;;;;;;;;;5051924;28;20140;-50
2023/11/05 05:19:06;;;;;;;0.45;0.30;;;;;;;;;;5070779;28;20080;-55
2023/11/05 05:21:33;;;;;;;1.33;0.60;;;;;;;;;;5071898;28;20079;-53
2023/11/05 05:24:00;;;;;;;0.35;0.30;;;;;;;;;;5071791;28;20359;-54
2023/11/05 05:26:26;;;;;;;0.60;0.40;;;;;;;;;;5071436;28;20139;-56
2023/11/05 05:28:53;;;;;;;0.68;0.30;;;;;;;;;;5071895;28;20128;-51
2023/11/05 05:31:20;;;;;;;0.50;0.30;;;;;;;;;;5071749;28;20044;-53
2023/11/05 05:33:48;;;;;;;0.63;0.32;;;;;;;;;;5071451;28;20083;-52
2023/11/05 05:36:16;;;;;;;2.28;0.40;;;;;;;;;;5060093;28;20129;-51
2023/11/05 05:38:43;;;;;;;2.20;0.50;;;;;;;;;;5066924;28;20424;-50
2023/11/05 05:41:09;;;;;;;1.10;0.43;;;;;;;;;;5052204;28;20132;-53
2023/11/05 05:43:38;;;;;;;0.90;0.38;;;;;;;;;;5051611;28;20124;-54
2023/11/05 05:46:05;;;;;;;0.43;0.30;;;;;;;;;;5069602;28;20076;-54
2023/11/05 05:48:34;;;;;;;2.70;0.47;;;;;;;;;;5071490;28;20053;-51
2023/11/05 05:51:02;;;;;;;0.50;0.30;;;;;;;;;;5071314;28;20056;-50
2023/11/05 05:53:29;;;;;;;1.17;0.60;;;;;;;;;;5071234;28;20131;-54
2023/11/05 05:55:56;;;;;;;0.38;0.32;;;;;;;;;;5071078;28;20071;-52
2023/11/05 05:58:23;;;;;;;0.50;0.30;;;;;;;;;;5071473;28;20144;-53
2023/11/05 06:00:51;;;;;;;1.35;0.43;;;;;;;;;;5071443;28;20174;-52
2023/11/05 06:03:18;;;;;;;0.80;0.38;;;;;;;;;;5063308;28;20047;-54
2023/11/05 06:05:45;;;;;;;1.52;0.40;;;;;;;;;;5071146;28;20044;-55
2023/11/05 06:08:13;;;;;;;1.65;0.57;;;;;;;;;;5071056;28;20056;-50
2023/11/05 06:10:40;;;;;;;1.00;0.45;;;;;;;;;;5056168;28;20080;-54
2023/11/05 06:13:09;;;;;;;0.52;0.30;;;;;;;;;;5051338;28;20064;-53
2023/11/05 06:15:36;;;;;;;0.63;0.38;;;;;;;;;;5051105;28;20500;-51
2023/11/05 06:18:03;;;;;;;1.48;0.43;;;;;;;;;;5061826;28;20131;-52
2023/11/05 06:20:30;;;;;;;1.23;0.40;;;;;;;;;;5071310;28;20080;-55
2023/11/05 06:22:57;;;;;;;1.25;0.40;;;;;;;;;;5070999;28;20091;-51
2023/11/05 06:25:25;;;;;;;0.65;0.30;;;;;;;;;;5071122;28;20044;-55
2023/11/05 06:27:53;;;;;;;0.47;0.40;;;;;;;;;;5070892;28;20128;-51
2023/11/05 06:30:21;;;;;;;0.98;0.30;;;;;;;;;;5050981;28;20049;-52
2023/11/05 06:32:48;;;;;;;0.80;0.40;;;;;;;;;;5050968;28;20057;-53
2023/11/05 06:35:18;;;;;;;1.58;0.45;;;;;;;;;;5062458;28;20132;-50
2023/11/05 06:37:46;;;;;;;0.63;0.30;;;;;;;;;;5071107;28;20153;-50
2023/11/05 06:40:13;;;;;;;1.33;0.50;;;;;;;;;;5070845;28;20068;-52
2023/11/05 06:42:41;;;;;;;1.25;0.38;;;;;;;;;;5074127;28;20551;-54
2023/11/05 06:45:09;;;;;;;1.38;0.50;;;;;;;;;;5072465;28;20414;-50
2023/11/05 06:47:36;;;;;;;1.83;0.70;;;;;;;;;;5054916;28;20045;-52
2023/11/05 06:50:04;;;;;;;0.75;0.30;;;;;;;;;;5056646;28;20467;-52
2023/11/05 06:52:31;;;;;;;2.65;0.50;;;;;;;;;;5069509;28;20052;-53
2023/11/05 06:54:58;;;;;;;0.57;0.45;;;;;;;;;;5071918;28;20124;-51
2023/11/05 06:57:25;;;;;;;1.25;0.50;;;;;;;;;;5074696;28;20053;-51
2023/11/05 06:59:53;;;;;;;0.93;0.50;;;;;;;;;;5074867;28;20079;-51
2023/11/05 07:02:20;;;;;;;0.60;0.50;;;;;;;;;;5074675;28;20554;-52
2023/11/05 07:04:47;;;;;;;1.70;0.60;;;;;;;;;;5074409;28;20076;-51
2023/11/05 07:07:13;;;;;;;1.67;0.40;;;;;;;;;;5074328;28;20127;-53
2023/11/05 07:09:40;;;;;;;1.30;0.60;;;;;;;;;;5074495;28;20504;-56
2023/11/05 07:12:08;;;;;;;1.45;0.50;;;;;;;;;;5074438;28;20412;-52
2023/11/05 07:14:35;;;;;;;1.27;0.60;;;;;;;;;;5059947;28;20148;-51
2023/11/05 07:17:04;;;;;;;1.63;0.50;;;;;;;;;;5055622;28;20059;-56
2023/11/05 07:19:31;;;;;;;0.73;0.32;;;;;;;;;;5074369;28;20052;-54
2023/11/05 07:21:58;;;;;;;2.33;0.50;;;;;;;;;;5073349;28;20075;-55
2023/11/05 07:24:25;;;;;;;1.50;0.73;;;;;;;;;;5074246;28;20075;-51
2023/11/05 07:26:52;;;;;;;0.95;0.60;;;;;;;;;;5074221;28;20471;-52
2023/11/05 07:29:18;;;;;;;1.58;0.50;;;;;;;;;;5074498;28;20493;-51
2023/11/05 07:31:45;;;;;;;1.38;0.50;;;;;;;;;;5074349;28;20131;-53
2023/11/05 07:34:13;;;;;;;2.15;0.70;;;;;;;;;;5074242;28;20060;-51
2023/11/05 07:36:40;;;;;;;0.95;0.47;;;;;;;;;;5067359;28;20045;-54
2023/11/05 07:39:09;;;;;;;3.08;1.10;;;;;;;;;;5053879;28;20143;-54
2023/11/05 07:41:37;;;;;;;2.13;0.70;;;;;;;;;;5054089;28;20052;-50
2023/11/05 07:44:04;;;;;;;3.60;0.90;;;;;;;;;;5053876;28;20044;-55
2023/11/05 07:46:32;;;;;;;0.90;0.45;;;;;;;;;;5054041;28;20053;-56
2023/11/05 07:48:58;;;;;;;1.02;0.60;;;;;;;;;;5054011;28;20049;-51
2023/11/05 07:51:27;;;;;;;3.70;1.08;;;;;;;;;;5053905;28;20083;-53
2023/11/05 07:53:54;;;;;;;1.95;0.65;;;;;;;;;;5052557;28;20049;-53
2023/11/05 07:56:21;;;;;;;2.25;1.10;;;;;;;;;;5053854;28;20049;-52
2023/11/05 07:58:48;;;;;;;2.15;0.82;;;;;;;;;;5053625;28;20055;-51
2023/11/05 08:01:15;;;;;;;1.40;0.63;;;;;;;;;;5056744;28;20072;-53
2023/11/05 08:03:42;;;;;;;3.55;0.70;;;;;;;;;;5073580;28;20398;-52
2023/11/05 08:06:10;;;;;;;1.67;0.80;;;;;;;;;;5073341;28;20132;-54
2023/11/05 08:08:38;;;;;;;2.38;0.93;;;;;;;;;;5073630;28;20139;-50
2023/11/05 08:11:05;;;;;;;1.65;0.60;;;;;;;;;;5073716;28;20123;-55
2023/11/05 08:13:32;;;;;;;1.27;0.70;;;;;;;;;;5073406;28;20128;-56
2023/11/05 08:15:58;;;;;;;1.85;0.73;;;;;;;;;;5073164;28;20129;-54
2023/11/05 08:18:25;;;;;;;2.00;0.98;;;;;;;;;;5073508;28;20056;-49
2023/11/05 08:20:53;;;;;;;1.88;0.90;;;;;;;;;;5073243;28;20052;-53
2023/11/05 08:23:20;;;;;;;2.40;0.90;;;;;;;;;;5073191;28;20040;-53
2023/11/05 08:25:48;;;;;;;2.28;0.93;;;;;;;;;;5073221;28;20489;-50
2023/11/05 08:28:15;;;;;;;3.17;1.00;;;;;;;;;;5073054;28;20486;-52
2023/11/05 08:30:42;;;;;;;1.67;0.73;;;;;;;;;;5072991;28;20079;-55
2023/11/05 08:33:10;;;;;;;2.63;0.85;;;;;;;;;;5072905;28;20040;-54
2023/11/05 08:35:37;;;;;;;3.88;1.58;;;;;;;;;;5072893;28;20044;-54
2023/11/05 08:38:04;;;;;;;2.90;1.48;;;;;;;;;;5072807;28;20053;-54
2023/11/05 08:40:31;;;;;;;2.83;1.05;;;;;;;;;;5073178;28;20420;-54
2023/11/05 08:42:59;;;;;;;2.08;0.95;;;;;;;;;;5072745;28;20044;-55
2023/11/05 08:45:26;;;;;;;3.00;1.27;;;;;;;;;;5072763;28;20577;-53
2023/11/05 08:47:53;;;;;;;1.83;0.70;;;;;;;;;;5072379;28;20127;-56
2023/11/05 08:50:24;;;;;;;2.78;1.25;;;;;;;;;;5052822;28;20564;-51
2023/11/05 08:52:50;;;;;;;2.13;1.05;;;;;;;;;;5052888;28;20048;-56
2023/11/05 08:55:17;;;;;;;2.35;0.80;;;;;;;;;;5052442;28;20548;-55
2023/11/05 08:57:44;;;;;;;1.92;0.90;;;;;;;;;;5052571;28;20080;-53
2023/11/05 09:00:13;;;;;;;1.95;0.88;;;;;;;;;;5052268;28;20049;-53
2023/11/05 09:02:40;;;;;;;1.67;0.68;;;;;;;;;;5052670;28;20135;-52
2023/11/05 09:05:07;;;;;;;2.53;0.90;;;;;;;;;;5051858;28;20120;-50
2023/11/05 09:07:35;;;;;;;1.30;0.80;;;;;;;;;;5052498;28;20416;-56
2023/11/05 09:10:02;;;;;;;2.67;0.73;;;;;;;;;;5051983;28;20045;-51
2023/11/05 09:12:30;;;;;;;2.13;0.85;;;;;;;;;;5052577;28;20045;-54
2023/11/05 09:14:57;;;;;;;2.10;0.70;;;;;;;;;;5051730;28;20452;-51
2023/11/05 09:17:25;;;;;;;2.42;0.85;;;;;;;;;;5052516;28;20701;-51
2023/11/05 09:19:52;;;;;;;2.42;0.80;;;;;;;;;;5052465;28;20487;-51
2023/11/05 09:22:20;;;;;;;1.40;0.70;;;;;;;;;;5052063;28;20049;-54
2023/11/05 09:24:47;;;;;;;2.03;0.90;;;;;;;;;;5051979;28;20123;-52
2023/11/05 09:27:15;;;;;;;1.60;0.60;;;;;;;;;;5051982;28;20044;-54
2023/11/05 09:29:42;;;;;;;1.45;0.47;;;;;;;;;;5052096;28;20045;-53
2023/11/05 09:32:10;;;;;;;0.63;0.30;;;;;;;;;;5051903;28;20068;-55
2023/11/05 09:34:38;;;;;;;0.82;0.50;;;;;;;;;;5051746;28;20427;-51
2023/11/05 09:37:05;;;;;;;1.00;0.50;;;;;;;;;;5051980;28;20072;-55
2023/11/05 09:39:33;;;;;;;1.02;0.50;;;;;;;;;;5051883;28;20063;-54
2023/11/05 09:42:00;;;;;;;1.05;0.50;;;;;;;;;;5052009;28;20053;-55
2023/11/05 09:44:28;;;;;;;2.05;0.70;;;;;;;;;;5052571;28;20057;-53
2023/11/05 09:46:58;;;;;;;0.68;0.47;;;;;;;;;;5052111;28;20061;-54
2023/11/05 09:49:25;;;;;;;0.93;0.50;;;;;;;;;;5052105;28;20457;-55
2023/11/05 09:51:55;;;;;;;1.65;0.65;;;;;;;;;;5052013;28;20435;-53
2023/11/05 09:54:21;;;;;;;1.05;0.50;;;;;;;;;;5064278;28;20048;-54
2023/11/05 09:56:49;;;;;;;0.70;0.30;;;;;;;;;;5072163;28;20135;-53
2023/11/05 09:59:16;;;;;;;0.93;0.43;;;;;;;;;;5072561;28;20052;-55
2023/11/05 10:01:52;;;;;;;1.17;0.43;;;;;;;;;;5071972;28;20123;-54
2023/11/05 10:04:20;;;;;;;0.80;0.20;;;;;;;;;;5072454;28;20541;-53
2023/11/05 10:06:48;;;;;;;0.75;0.32;;;;;;;;;;5071687;28;20048;-55
2023/11/05 10:09:16;;;;;;;1.27;0.40;;;;;;;;;;5072193;28;20048;-54
2023/11/05 10:11:44;;;;;;;1.15;0.30;;;;;;;;;;5072346;28;20490;-55
2023/11/05 10:14:14;;;;;;;1.02;0.20;;;;;;;;;;5071907;28;20044;-54
2023/11/05 10:16:41;;;;;;;0.73;0.30;;;;;;;;;;5071341;28;20415;-53
2023/11/05 10:19:10;;;;;;;1.75;0.65;;;;;;;;;;5072134;28;20083;-54
2023/11/05 10:21:38;;;;;;;2.57;0.50;;;;;;;;;;5071941;28;20056;-52
2023/11/05 10:24:07;;;;;;;2.50;0.35;;;;;;;;;;5071879;28;20049;-54
2023/11/05 10:26:36;;;;;;;2.30;0.80;;;;;;;;;;5072023;28;20052;-50
2023/11/05 10:29:04;;;;;;;0.22;0.20;;;;;;;;;;5071733;28;20044;-49
2023/11/05 10:31:33;;;;;;;3.45;0.35;;;;;;;;;;5071892;28;20044;-52
2023/11/05 10:34:03;;;;;;;0.68;0.28;;;;;;;;;;5071785;28;20048;-53
2023/11/05 10:36:31;;;;;;;2.53;0.60;;;;;;;;;;5071598;28;20057;-56
2023/11/05 10:39:00;;;;;;;0.60;0.20;;;;;;;;;;5071657;28;20072;-53
2023/11/05 10:41:28;;;;;;;0.77;0.30;;;;;;;;;;5071542;28;20419;-53
2023/11/05 10:43:58;;;;;;;1.00;0.22;;;;;;;;;;5071479;28;20053;-50
2023/11/05 10:46:27;;;;;;;0.30;0.28;;;;;;;;;;5071314;28;20059;-56
2023/11/05 10:48:54;;;;;;;0.52;0.30;;;;;;;;;;5071511;28;20388;-56
2023/11/05 10:51:23;;;;;;;1.55;0.20;;;;;;;;;;5071668;28;20132;-55
2023/11/05 10:53:53;;;;;;;0.73;0.28;;;;;;;;;;5071479;28;20054;-56
2023/11/05 10:56:30;;;;;;;0.68;0.22;;;;;;;;;;5071304;28;20047;-52
2023/11/05 10:59:02;;;;;;;0.65;0.30;;;;;;;;;;5071491;28;20203;-55
2023/11/05 11:01:30;;;;;;;1.58;0.57;;;;;;;;;;5071245;28;20131;-56
2023/11/05 11:04:13;;;;;;;0.75;0.30;;;;;;;;;;5071141;28;20087;-55
2023/11/05 11:06:41;;;;;;;1.30;0.50;;;;;;;;;;5071126;28;20464;-53
2023/11/05 11:09:11;;;;;;;0.75;0.40;;;;;;;;;;5070879;28;20180;-55
2023/11/05 11:11:39;;;;;;;0.53;0.33;;;;;;;;;;5070957;28;20102;-54
2023/11/05 11:14:10;;;;;;;0.50;0.30;;;;;;;;;;5070586;28;20044;-52
2023/11/05 11:16:41;;;;;;;1.20;0.30;;;;;;;;;;5070928;28;20500;-51
2023/11/05 11:19:13;;;;;;;0.57;0.40;;;;;;;;;;5071121;28;20041;-55
2023/11/05 11:21:45;;;;;;;1.45;0.50;;;;;;;;;;5071122;28;20061;-53
2023/11/05 11:24:39;;;;;;;0.57;0.30;;;;;;;;;;5070832;28;20052;-55
2023/11/05 11:27:09;;;;;;;0.75;0.30;;;;;;;;;;5071077;28;20500;-55
2023/11/05 11:29:38;;;;;;;0.88;0.32;;;;;;;;;;5074534;28;20049;-54
2023/11/05 11:32:07;;;;;;;2.05;1.05;;;;;;;;;;5072262;28;20132;-52
2023/11/05 11:34:44;;;;;;;1.23;0.30;;;;;;;;;;5054288;28;20072;-54
2023/11/05 11:37:16;;;;;;;1.05;0.47;;;;;;;;;;5054034;28;20056;-52
2023/11/05 11:39:43;;;;;;;1.67;0.50;;;;;;;;;;5053971;28;20044;-53
2023/11/05 11:42:10;;;;;;;0.55;0.40;;;;;;;;;;5054104;28;20051;-50
2023/11/05 11:44:48;;;;;;;2.58;0.50;;;;;;;;;;5054156;28;20131;-54
2023/11/05 11:47:15;;;;;;;0.40;0.30;;;;;;;;;;5054126;28;20394;-53
2023/11/05 11:49:44;;;;;;;0.88;0.30;;;;;;;;;;5054059;28;20505;-54
2023/11/05 11:52:11;;;;;;;0.75;0.30;;;;;;;;;;5053731;28;20060;-56
2023/11/05 11:54:39;;;;;;;0.20;0.20;;;;;;;;;;5053716;28;20500;-54
2023/11/05 11:57:06;;;;;;;0.80;0.40;;;;;;;;;;5053875;28;20068;-53
2023/11/05 11:59:33;;;;;;;0.40;0.30;;;;;;;;;;5053884;28;20056;-55
2023/11/05 12:02:02;;;;;;;0.63;0.35;;;;;;;;;;5053793;28;20052;-56
2023/11/05 12:04:29;;;;;;;0.43;0.30;;;;;;;;;;5053840;28;20109;-55
2023/11/05 12:06:56;;;;;;;0.50;0.30;;;;;;;;;;5062194;28;20136;-52
2023/11/05 12:09:25;;;;;;;0.28;0.20;;;;;;;;;;5066070;28;20045;-51
2023/11/05 12:11:54;;;;;;;0.70;0.25;;;;;;;;;;5073528;28;20147;-53
2023/11/05 12:14:23;;;;;;;0.95;0.30;;;;;;;;;;5073510;28;20044;-55
2023/11/05 12:16:49;;;;;;;0.75;0.40;;;;;;;;;;5073231;28;20094;-53
2023/11/05 12:19:19;;;;;;;0.30;0.30;;;;;;;;;;5073767;28;20052;-51
2023/11/05 12:21:46;;;;;;;1.13;0.40;;;;;;;;;;5073339;28;20124;-52
2023/11/05 12:24:16;;;;;;;0.98;0.40;;;;;;;;;;5073627;28;20171;-54
2023/11/05 12:26:44;;;;;;;1.17;0.30;;;;;;;;;;5072926;28;20072;-51
2023/11/05 12:29:11;;;;;;;1.25;0.40;;;;;;;;;;5073346;28;20044;-54
2023/11/05 12:31:38;;;;;;;1.17;0.30;;;;;;;;;;5073841;28;20057;-55
2023/11/05 12:34:05;;;;;;;0.52;0.30;;;;;;;;;;5055239;28;20052;-51
2023/11/05 12:36:33;;;;;;;1.17;0.68;;;;;;;;;;5066749;28;20080;-55
2023/11/05 12:39:00;;;;;;;0.60;0.30;;;;;;;;;;5072160;28;20080;-52
2023/11/05 12:41:29;;;;;;;0.75;0.32;;;;;;;;;;5072941;28;20128;-52
2023/11/05 12:43:57;;;;;;;1.33;0.40;;;;;;;;;;5064703;28;20045;-55
2023/11/05 12:46:24;;;;;;;0.43;0.30;;;;;;;;;;5072757;28;20057;-53
2023/11/05 12:48:51;;;;;;;0.40;0.20;;;;;;;;;;5072918;28;20076;-53
2023/11/05 12:51:17;;;;;;;0.80;0.30;;;;;;;;;;5072743;28;20101;-55
2023/11/05 12:53:46;;;;;;;0.93;0.32;;;;;;;;;;5072661;28;20131;-56
2023/11/05 12:56:13;;;;;;;1.00;0.30;;;;;;;;;;5072315;28;20135;-54
2023/11/05 12:58:40;;;;;;;0.82;0.20;;;;;;;;;;5072789;28;20125;-55
2023/11/05 13:01:08;;;;;;;0.93;0.50;;;;;;;;;;5072784;28;20059;-54
2023/11/05 13:03:35;;;;;;;0.45;0.28;;;;;;;;;;5072545;28;20044;-56
2023/11/05 13:06:01;;;;;;;1.08;0.35;;;;;;;;;;5072225;28;20052;-55
2023/11/05 13:08:28;;;;;;;1.10;0.22;;;;;;;;;;5072255;28;20079;-55
2023/11/05 13:10:57;;;;;;;0.65;0.30;;;;;;;;;;5072386;28;20527;-54
2023/11/05 13:13:24;;;;;;;0.88;0.30;;;;;;;;;;5072120;28;20124;-54
2023/11/05 13:15:51;;;;;;;0.40;0.35;;;;;;;;;;5071807;28;20080;-53
2023/11/05 13:18:20;;;;;;;0.57;0.20;;;;;;;;;;5072049;28;20136;-51
2023/11/05 13:20:47;;;;;;;1.45;0.65;;;;;;;;;;5071980;28;20056;-56
2023/11/05 13:23:14;;;;;;;0.43;0.30;;;;;;;;;;5071759;28;20083;-53
2023/11/05 13:25:41;;;;;;;0.95;0.40;;;;;;;;;;5071755;28;20091;-51
2023/11/05 13:28:09;;;;;;;0.50;0.30;;;;;;;;;;5061805;28;20566;-54
2023/11/05 13:30:36;;;;;;;0.63;0.57;;;;;;;;;;5052045;28;20523;-53
2023/11/05 13:33:03;;;;;;;0.45;0.30;;;;;;;;;;5051769;28;20520;-54
2023/11/05 13:35:30;;;;;;;0.80;0.30;;;;;;;;;;5051720;28;20073;-54
2023/11/05 13:37:57;;;;;;;1.00;0.30;;;;;;;;;;5051645;28;20049;-55
2023/11/05 13:40:25;;;;;;;1.17;0.40;;;;;;;;;;5051763;28;20133;-56
2023/11/05 13:42:52;;;;;;;0.57;0.30;;;;;;;;;;5051816;28;20115;-54
2023/11/05 13:45:21;;;;;;;0.60;0.40;;;;;;;;;;5063510;28;20052;-56
2023/11/05 13:47:48;;;;;;;0.70;0.30;;;;;;;;;;5071851;28;20059;-54
2023/11/05 13:50:15;;;;;;;1.58;0.50;;;;;;;;;;5071470;28;20148;-55
2023/11/05 13:52:42;;;;;;;0.75;0.43;;;;;;;;;;5071563;28;20412;-50
2023/11/05 13:55:09;;;;;;;1.60;0.40;;;;;;;;;;5071494;28;20098;-55
2023/11/05 13:57:36;;;;;;;0.57;0.30;;;;;;;;;;5071561;28;20076;-53
2023/11/05 14:00:06;;;;;;;1.00;0.50;;;;;;;;;;5071730;28;20090;-51
2023/11/05 14:02:37;;;;;;;1.27;0.50;;;;;;;;;;5071356;28;20132;-52
2023/11/05 14:05:05;;;;;;;1.03;0.43;;;;;;;;;;5071701;28;20056;-55
2023/11/05 14:07:32;;;;;;;0.50;0.38;;;;;;;;;;5071520;28;20076;-52
2023/11/05 14:10:00;;;;;;;1.35;0.40;;;;;;;;;;5071677;28;20101;-50
2023/11/05 14:12:27;;;;;;;0.60;0.40;;;;;;;;;;5071525;28;20098;-52
2023/11/05 14:14:56;;;;;;;0.93;0.40;;;;;;;;;;5071342;28;20140;-54
2023/11/05 14:17:22;;;;;;;0.63;0.30;;;;;;;;;;5071440;28;20432;-52
2023/11/05 14:19:50;;;;;;;0.80;0.40;;;;;;;;;;5071456;28;20135;-53
2023/11/05 14:22:17;;;;;;;0.90;0.40;;;;;;;;;;5071206;28;20129;-53
2023/11/05 14:24:44;;;;;;;1.25;0.30;;;;;;;;;;5070998;28;20076;-56
2023/11/05 14:27:12;;;;;;;1.45;0.40;;;;;;;;;;5071674;28;20083;-53
2023/11/05 14:29:39;;;;;;;1.40;0.40;;;;;;;;;;5071506;28;20055;-50
2023/11/05 14:32:06;;;;;;;1.08;0.38;;;;;;;;;;5071154;28;20079;-54
2023/11/05 14:34:33;;;;;;;1.05;0.40;;;;;;;;;;5071276;28;20056;-53
2023/11/05 14:37:01;;;;;;;0.47;0.40;;;;;;;;;;5071298;28;20140;-52
2023/11/05 14:39:28;;;;;;;0.93;0.40;;;;;;;;;;5071127;28;20135;-54
2023/11/05 14:41:55;;;;;;;0.98;0.40;;;;;;;;;;5071208;28;20128;-55
2023/11/05 14:44:22;;;;;;;1.30;0.50;;;;;;;;;;5071418;28;20118;-53
2023/11/05 14:46:48;;;;;;;1.23;0.50;;;;;;;;;;5071239;28;20435;-55